sensor_id;sensor_type;location;lat;lon;timestamp;temperature;humidity
19538;DHT22;9914;51.008;4.300;2024-01-10T00:01:23;-3.40;99.90
19538;DHT22;9914;51.008;4.300;2024-01-10T00:03:55;-3.40;99.90
19538;DHT22;9914;51.008;4.300;2024-01-10T00:06:21;-3.30;99.90
19538;DHT22;9914;51.008;4.300;2024-01-10T00:08:47;-3.20;99.90
19538;DHT22;9914;51.008;4.300;2024-01-10T00:11:12;-3.30;99.90
19538;DHT22;9914;51.008;4.300;2024-01-10T00:13:38;-3.20;99.90
19538;DHT22;9914;51.008;4.300;2024-01-10T00:16:04;-3.20;99.90
19538;DHT22;9914;51.008;4.300;2024-01-10T00:18:30;-3.30;99.90
19538;DHT22;9914;51.008;4.300;2024-01-10T00:20:56;-3.20;99.90
19538;DHT22;9914;51.008;4.300;2024-01-10T00:23:22;-3.30;99.90
19538;DHT22;9914;51.008;4.300;2024-01-10T00:25:48;-3.10;99.90
19538;DHT22;9914;51.008;4.300;2024-01-10T00:28:14;-3.20;99.90
19538;DHT22;9914;51.008;4.300;2024-01-10T00:30:42;-3.20;99.90
19538;DHT22;9914;51.008;4.300;2024-01-10T00:33:07;-3.30;99.90
19538;DHT22;9914;51.008;4.300;2024-01-10T00:35:33;-3.40;99.90
19538;DHT22;9914;51.008;4.300;2024-01-10T00:37:59;-3.50;99.90
19538;DHT22;9914;51.008;4.300;2024-01-10T00:40:25;-3.50;99.90
19538;DHT22;9914;51.008;4.300;2024-01-10T00:42:50;-3.50;99.90
19538;DHT22;9914;51.008;4.300;2024-01-10T00:45:16;-3.70;99.90
19538;DHT22;9914;51.008;4.300;2024-01-10T00:47:42;-3.70;99.90
19538;DHT22;9914;51.008;4.300;2024-01-10T00:50:08;-3.60;99.90
19538;DHT22;9914;51.008;4.300;2024-01-10T00:52:34;-3.70;99.90
19538;DHT22;9914;51.008;4.300;2024-01-10T00:55:00;-3.70;99.90
19538;DHT22;9914;51.008;4.300;2024-01-10T00:57:26;-3.60;99.90
19538;DHT22;9914;51.008;4.300;2024-01-10T00:59:51;-3.60;99.90
19538;DHT22;9914;51.008;4.300;2024-01-10T01:02:17;-3.60;99.90
19538;DHT22;9914;51.008;4.300;2024-01-10T01:04:43;-3.40;99.90
19538;DHT22;9914;51.008;4.300;2024-01-10T01:07:08;-3.40;99.90
19538;DHT22;9914;51.008;4.300;2024-01-10T01:09:34;-3.50;99.90
19538;DHT22;9914;51.008;4.300;2024-01-10T01:12:00;-3.60;99.90
19538;DHT22;9914;51.008;4.300;2024-01-10T01:14:26;-3.50;99.90
19538;DHT22;9914;51.008;4.300;2024-01-10T01:16:52;-3.50;99.90
19538;DHT22;9914;51.008;4.300;2024-01-10T01:19:18;-3.40;99.90
19538;DHT22;9914;51.008;4.300;2024-01-10T01:21:43;-3.60;99.90
19538;DHT22;9914;51.008;4.300;2024-01-10T01:24:09;-3.80;99.90
19538;DHT22;9914;51.008;4.300;2024-01-10T01:26:35;-3.70;99.90
19538;DHT22;9914;51.008;4.300;2024-01-10T01:29:00;-3.60;99.90
19538;DHT22;9914;51.008;4.300;2024-01-10T01:31:26;-3.70;99.90
19538;DHT22;9914;51.008;4.300;2024-01-10T01:33:51;-3.70;99.90
19538;DHT22;9914;51.008;4.300;2024-01-10T01:36:17;-3.70;99.90
19538;DHT22;9914;51.008;4.300;2024-01-10T01:38:43;-3.80;99.90
19538;DHT22;9914;51.008;4.300;2024-01-10T01:41:09;-3.50;99.90
19538;DHT22;9914;51.008;4.300;2024-01-10T01:43:34;-3.40;99.90
19538;DHT22;9914;51.008;4.300;2024-01-10T01:46:01;-3.50;99.90
19538;DHT22;9914;51.008;4.300;2024-01-10T01:48:28;-3.40;99.90
19538;DHT22;9914;51.008;4.300;2024-01-10T01:50:59;-3.60;99.90
19538;DHT22;9914;51.008;4.300;2024-01-10T01:53:26;-3.50;99.90
19538;DHT22;9914;51.008;4.300;2024-01-10T01:55:54;-3.60;99.90
19538;DHT22;9914;51.008;4.300;2024-01-10T01:58:22;-3.70;99.90
19538;DHT22;9914;51.008;4.300;2024-01-10T02:00:48;-3.60;99.90
19538;DHT22;9914;51.008;4.300;2024-01-10T02:03:14;-3.80;99.90
19538;DHT22;9914;51.008;4.300;2024-01-10T02:05:40;-3.70;99.90
19538;DHT22;9914;51.008;4.300;2024-01-10T02:08:06;-3.90;99.90
19538;DHT22;9914;51.008;4.300;2024-01-10T02:10:31;-4.10;99.90
19538;DHT22;9914;51.008;4.300;2024-01-10T02:12:57;-4.10;99.90
19538;DHT22;9914;51.008;4.300;2024-01-10T02:15:24;-4.10;99.90
19538;DHT22;9914;51.008;4.300;2024-01-10T02:17:49;-3.90;99.90
19538;DHT22;9914;51.008;4.300;2024-01-10T02:20:16;-4.10;99.90
19538;DHT22;9914;51.008;4.300;2024-01-10T02:22:46;-4.20;99.90
19538;DHT22;9914;51.008;4.300;2024-01-10T02:25:13;-4.20;99.90
19538;DHT22;9914;51.008;4.300;2024-01-10T02:27:40;-4.20;99.90
19538;DHT22;9914;51.008;4.300;2024-01-10T02:30:06;-4.20;99.90
19538;DHT22;9914;51.008;4.300;2024-01-10T02:32:33;-4.30;99.90
19538;DHT22;9914;51.008;4.300;2024-01-10T02:34:59;-4.20;99.90
19538;DHT22;9914;51.008;4.300;2024-01-10T02:37:25;-4.30;99.90
19538;DHT22;9914;51.008;4.300;2024-01-10T02:39:51;-4.10;99.90
19538;DHT22;9914;51.008;4.300;2024-01-10T02:42:17;-4.00;99.90
19538;DHT22;9914;51.008;4.300;2024-01-10T02:44:43;-4.00;99.90
19538;DHT22;9914;51.008;4.300;2024-01-10T02:47:08;-3.70;99.90
19538;DHT22;9914;51.008;4.300;2024-01-10T02:49:34;-3.90;99.90
19538;DHT22;9914;51.008;4.300;2024-01-10T02:52:00;-4.20;99.90
19538;DHT22;9914;51.008;4.300;2024-01-10T02:54:26;-4.20;99.90
19538;DHT22;9914;51.008;4.300;2024-01-10T02:56:52;-4.20;99.90
19538;DHT22;9914;51.008;4.300;2024-01-10T02:59:17;-4.20;99.90
19538;DHT22;9914;51.008;4.300;2024-01-10T03:01:43;-4.30;99.90
19538;DHT22;9914;51.008;4.300;2024-01-10T03:04:09;-4.30;99.90
19538;DHT22;9914;51.008;4.300;2024-01-10T03:06:35;-4.20;99.90
19538;DHT22;9914;51.008;4.300;2024-01-10T03:09:01;-3.90;99.90
19538;DHT22;9914;51.008;4.300;2024-01-10T03:11:26;-4.00;99.90
19538;DHT22;9914;51.008;4.300;2024-01-10T03:14:02;-4.00;99.90
19538;DHT22;9914;51.008;4.300;2024-01-10T03:16:28;-4.00;99.90
19538;DHT22;9914;51.008;4.300;2024-01-10T03:18:53;-4.10;99.90
19538;DHT22;9914;51.008;4.300;2024-01-10T03:21:19;-4.30;99.90
19538;DHT22;9914;51.008;4.300;2024-01-10T03:23:56;-4.20;99.90
19538;DHT22;9914;51.008;4.300;2024-01-10T03:26:22;-4.00;99.90
19538;DHT22;9914;51.008;4.300;2024-01-10T03:28:48;-4.10;99.90
19538;DHT22;9914;51.008;4.300;2024-01-10T03:31:14;-4.20;99.90
19538;DHT22;9914;51.008;4.300;2024-01-10T03:33:40;-4.30;99.90
19538;DHT22;9914;51.008;4.300;2024-01-10T03:36:07;-4.30;99.90
19538;DHT22;9914;51.008;4.300;2024-01-10T03:38:34;-4.20;99.90
19538;DHT22;9914;51.008;4.300;2024-01-10T03:40:59;-4.10;99.90
19538;DHT22;9914;51.008;4.300;2024-01-10T03:43:25;-4.10;99.90
19538;DHT22;9914;51.008;4.300;2024-01-10T03:45:51;-3.90;99.90
19538;DHT22;9914;51.008;4.300;2024-01-10T03:48:16;-4.10;99.90
19538;DHT22;9914;51.008;4.300;2024-01-10T03:50:42;-4.30;99.90
19538;DHT22;9914;51.008;4.300;2024-01-10T03:53:07;-4.50;99.90
19538;DHT22;9914;51.008;4.300;2024-01-10T03:55:33;-4.50;99.90
19538;DHT22;9914;51.008;4.300;2024-01-10T03:57:59;-4.40;99.90
19538;DHT22;9914;51.008;4.300;2024-01-10T04:00:25;-4.50;99.90
19538;DHT22;9914;51.008;4.300;2024-01-10T04:02:52;-4.50;99.90
19538;DHT22;9914;51.008;4.300;2024-01-10T04:05:18;-4.50;99.90
19538;DHT22;9914;51.008;4.300;2024-01-10T04:07:44;-4.60;99.90
19538;DHT22;9914;51.008;4.300;2024-01-10T04:10:11;-4.70;99.90
19538;DHT22;9914;51.008;4.300;2024-01-10T04:12:48;-4.60;99.90
19538;DHT22;9914;51.008;4.300;2024-01-10T04:15:13;-4.60;99.90
19538;DHT22;9914;51.008;4.300;2024-01-10T04:17:39;-4.70;99.90
19538;DHT22;9914;51.008;4.300;2024-01-10T04:20:05;-4.60;99.90
19538;DHT22;9914;51.008;4.300;2024-01-10T04:22:32;-4.40;99.90
19538;DHT22;9914;51.008;4.300;2024-01-10T04:24:58;-4.40;99.90
19538;DHT22;9914;51.008;4.300;2024-01-10T04:27:25;-4.50;99.90
19538;DHT22;9914;51.008;4.300;2024-01-10T04:29:50;-4.70;99.90
19538;DHT22;9914;51.008;4.300;2024-01-10T04:32:16;-4.70;99.90
19538;DHT22;9914;51.008;4.300;2024-01-10T04:34:42;-4.60;99.90
19538;DHT22;9914;51.008;4.300;2024-01-10T04:37:07;-4.60;99.90
19538;DHT22;9914;51.008;4.300;2024-01-10T04:39:36;-4.50;99.90
19538;DHT22;9914;51.008;4.300;2024-01-10T04:42:03;-4.50;99.90
19538;DHT22;9914;51.008;4.300;2024-01-10T04:44:29;-4.50;99.90
19538;DHT22;9914;51.008;4.300;2024-01-10T04:46:55;-4.70;99.90
19538;DHT22;9914;51.008;4.300;2024-01-10T04:49:21;-4.80;99.90
19538;DHT22;9914;51.008;4.300;2024-01-10T04:51:47;-4.80;99.90
19538;DHT22;9914;51.008;4.300;2024-01-10T04:54:13;-4.80;99.90
19538;DHT22;9914;51.008;4.300;2024-01-10T04:56:39;-4.60;99.90
19538;DHT22;9914;51.008;4.300;2024-01-10T04:59:05;-4.70;99.90
19538;DHT22;9914;51.008;4.300;2024-01-10T05:01:31;-4.70;99.90
19538;DHT22;9914;51.008;4.300;2024-01-10T05:03:57;-4.80;99.90
19538;DHT22;9914;51.008;4.300;2024-01-10T05:06:23;-4.50;99.90
19538;DHT22;9914;51.008;4.300;2024-01-10T05:08:49;-4.30;99.90
19538;DHT22;9914;51.008;4.300;2024-01-10T05:11:15;-4.50;99.90
19538;DHT22;9914;51.008;4.300;2024-01-10T05:13:41;-4.60;99.90
19538;DHT22;9914;51.008;4.300;2024-01-10T05:16:07;-4.70;99.90
19538;DHT22;9914;51.008;4.300;2024-01-10T05:18:33;-4.30;99.90
19538;DHT22;9914;51.008;4.300;2024-01-10T05:20:59;-4.10;99.90
19538;DHT22;9914;51.008;4.300;2024-01-10T05:23:25;-4.10;99.90
19538;DHT22;9914;51.008;4.300;2024-01-10T05:25:51;-4.00;99.90
19538;DHT22;9914;51.008;4.300;2024-01-10T05:28:17;-4.00;99.90
19538;DHT22;9914;51.008;4.300;2024-01-10T05:30:43;-4.10;99.90
19538;DHT22;9914;51.008;4.300;2024-01-10T05:33:09;-4.20;99.90
19538;DHT22;9914;51.008;4.300;2024-01-10T05:35:38;-4.40;99.90
19538;DHT22;9914;51.008;4.300;2024-01-10T05:38:04;-4.50;99.90
19538;DHT22;9914;51.008;4.300;2024-01-10T05:40:29;-4.20;99.90
19538;DHT22;9914;51.008;4.300;2024-01-10T05:42:56;-4.10;99.90
19538;DHT22;9914;51.008;4.300;2024-01-10T05:45:21;-4.00;99.90
19538;DHT22;9914;51.008;4.300;2024-01-10T05:47:47;-3.90;99.90
19538;DHT22;9914;51.008;4.300;2024-01-10T05:50:14;-4.20;99.90
19538;DHT22;9914;51.008;4.300;2024-01-10T05:52:39;-4.40;99.90
19538;DHT22;9914;51.008;4.300;2024-01-10T05:55:06;-4.30;99.90
19538;DHT22;9914;51.008;4.300;2024-01-10T05:57:34;-4.30;99.90
19538;DHT22;9914;51.008;4.300;2024-01-10T06:00:00;-4.20;99.90
19538;DHT22;9914;51.008;4.300;2024-01-10T06:02:26;-4.30;99.90
19538;DHT22;9914;51.008;4.300;2024-01-10T06:04:52;-4.30;99.90
19538;DHT22;9914;51.008;4.300;2024-01-10T06:07:18;-4.20;99.90
19538;DHT22;9914;51.008;4.300;2024-01-10T06:09:44;-4.30;99.90
19538;DHT22;9914;51.008;4.300;2024-01-10T06:12:09;-4.20;99.90
19538;DHT22;9914;51.008;4.300;2024-01-10T06:14:35;-4.20;99.90
19538;DHT22;9914;51.008;4.300;2024-01-10T06:17:01;-4.40;99.90
19538;DHT22;9914;51.008;4.300;2024-01-10T06:19:29;-4.50;99.90
19538;DHT22;9914;51.008;4.300;2024-01-10T06:21:56;-4.40;99.90
19538;DHT22;9914;51.008;4.300;2024-01-10T06:24:22;-4.40;99.90
19538;DHT22;9914;51.008;4.300;2024-01-10T06:26:48;-4.10;99.90
19538;DHT22;9914;51.008;4.300;2024-01-10T06:29:15;-4.10;99.90
19538;DHT22;9914;51.008;4.300;2024-01-10T06:31:41;-4.10;99.90
19538;DHT22;9914;51.008;4.300;2024-01-10T06:34:07;-4.30;99.90
19538;DHT22;9914;51.008;4.300;2024-01-10T06:36:34;-4.50;99.90
19538;DHT22;9914;51.008;4.300;2024-01-10T06:39:00;-4.40;99.90
19538;DHT22;9914;51.008;4.300;2024-01-10T06:41:27;-4.20;99.90
19538;DHT22;9914;51.008;4.300;2024-01-10T06:43:53;-4.20;99.90
19538;DHT22;9914;51.008;4.300;2024-01-10T06:46:19;-4.20;99.90
19538;DHT22;9914;51.008;4.300;2024-01-10T06:48:45;-4.20;99.90
19538;DHT22;9914;51.008;4.300;2024-01-10T06:51:12;-4.20;99.90
19538;DHT22;9914;51.008;4.300;2024-01-10T06:53:38;-4.20;99.90
19538;DHT22;9914;51.008;4.300;2024-01-10T06:56:05;-4.10;99.90
19538;DHT22;9914;51.008;4.300;2024-01-10T06:58:30;-4.20;99.90
19538;DHT22;9914;51.008;4.300;2024-01-10T07:00:56;-4.50;99.90
19538;DHT22;9914;51.008;4.300;2024-01-10T07:03:22;-4.60;99.90
19538;DHT22;9914;51.008;4.300;2024-01-10T07:05:50;-4.40;99.90
19538;DHT22;9914;51.008;4.300;2024-01-10T07:08:15;-4.10;99.90
19538;DHT22;9914;51.008;4.300;2024-01-10T07:10:43;-3.90;99.90
19538;DHT22;9914;51.008;4.300;2024-01-10T07:13:09;-4.00;99.90
19538;DHT22;9914;51.008;4.300;2024-01-10T07:15:35;-4.00;99.90
19538;DHT22;9914;51.008;4.300;2024-01-10T07:18:01;-3.90;99.90
19538;DHT22;9914;51.008;4.300;2024-01-10T07:20:29;-4.00;99.90
19538;DHT22;9914;51.008;4.300;2024-01-10T07:22:55;-4.20;99.90
19538;DHT22;9914;51.008;4.300;2024-01-10T07:25:21;-4.20;99.90
19538;DHT22;9914;51.008;4.300;2024-01-10T07:27:50;-4.10;99.90
19538;DHT22;9914;51.008;4.300;2024-01-10T07:30:16;-4.10;99.90
19538;DHT22;9914;51.008;4.300;2024-01-10T07:32:45;-4.20;99.90
19538;DHT22;9914;51.008;4.300;2024-01-10T07:35:12;-4.00;99.90
19538;DHT22;9914;51.008;4.300;2024-01-10T07:37:41;-4.00;99.90
19538;DHT22;9914;51.008;4.300;2024-01-10T07:40:08;-3.80;99.90
19538;DHT22;9914;51.008;4.300;2024-01-10T07:42:34;-4.00;99.90
19538;DHT22;9914;51.008;4.300;2024-01-10T07:45:00;-4.30;99.90
19538;DHT22;9914;51.008;4.300;2024-01-10T07:47:33;-4.20;99.90
19538;DHT22;9914;51.008;4.300;2024-01-10T07:50:05;-4.20;99.90
19538;DHT22;9914;51.008;4.300;2024-01-10T07:52:32;-4.00;99.90
19538;DHT22;9914;51.008;4.300;2024-01-10T07:54:57;-3.90;99.90
19538;DHT22;9914;51.008;4.300;2024-01-10T07:57:23;-3.70;99.90
19538;DHT22;9914;51.008;4.300;2024-01-10T07:59:49;-3.80;99.90
19538;DHT22;9914;51.008;4.300;2024-01-10T08:02:15;-3.90;99.90
19538;DHT22;9914;51.008;4.300;2024-01-10T08:04:40;-3.80;99.90
19538;DHT22;9914;51.008;4.300;2024-01-10T08:07:06;-3.90;99.90
19538;DHT22;9914;51.008;4.300;2024-01-10T08:09:32;-4.00;99.90
19538;DHT22;9914;51.008;4.300;2024-01-10T08:11:58;-4.20;99.90
19538;DHT22;9914;51.008;4.300;2024-01-10T08:14:24;-4.00;99.90
19538;DHT22;9914;51.008;4.300;2024-01-10T08:16:49;-4.10;99.90
19538;DHT22;9914;51.008;4.300;2024-01-10T08:19:18;-4.00;99.90
19538;DHT22;9914;51.008;4.300;2024-01-10T08:21:44;-3.90;99.90
19538;DHT22;9914;51.008;4.300;2024-01-10T08:24:10;-3.80;99.90
19538;DHT22;9914;51.008;4.300;2024-01-10T08:26:35;-4.00;99.90
19538;DHT22;9914;51.008;4.300;2024-01-10T08:29:03;-4.00;99.90
19538;DHT22;9914;51.008;4.300;2024-01-10T08:31:29;-4.10;99.90
19538;DHT22;9914;51.008;4.300;2024-01-10T08:33:55;-3.90;99.90
19538;DHT22;9914;51.008;4.300;2024-01-10T08:36:22;-4.00;99.90
19538;DHT22;9914;51.008;4.300;2024-01-10T08:38:50;-4.10;99.90
19538;DHT22;9914;51.008;4.300;2024-01-10T08:41:16;-4.10;99.90
19538;DHT22;9914;51.008;4.300;2024-01-10T08:43:41;-3.70;99.90
19538;DHT22;9914;51.008;4.300;2024-01-10T08:46:08;-3.50;99.90
19538;DHT22;9914;51.008;4.300;2024-01-10T08:48:34;-3.40;99.90
19538;DHT22;9914;51.008;4.300;2024-01-10T08:51:02;-3.30;99.90
19538;DHT22;9914;51.008;4.300;2024-01-10T08:53:27;-3.30;99.90
19538;DHT22;9914;51.008;4.300;2024-01-10T08:55:53;-3.30;99.90
19538;DHT22;9914;51.008;4.300;2024-01-10T08:58:19;-3.30;99.90
19538;DHT22;9914;51.008;4.300;2024-01-10T09:00:45;-3.60;99.90
19538;DHT22;9914;51.008;4.300;2024-01-10T09:03:10;-3.60;99.90
19538;DHT22;9914;51.008;4.300;2024-01-10T09:05:36;-3.60;99.90
19538;DHT22;9914;51.008;4.300;2024-01-10T09:08:02;-3.50;99.90
19538;DHT22;9914;51.008;4.300;2024-01-10T09:10:28;-3.30;99.90
19538;DHT22;9914;51.008;4.300;2024-01-10T09:12:54;-3.30;99.90
19538;DHT22;9914;51.008;4.300;2024-01-10T09:15:20;-3.10;99.90
19538;DHT22;9914;51.008;4.300;2024-01-10T09:17:46;-3.00;99.90
19538;DHT22;9914;51.008;4.300;2024-01-10T09:20:12;-3.10;99.90
19538;DHT22;9914;51.008;4.300;2024-01-10T09:22:38;-3.20;99.90
19538;DHT22;9914;51.008;4.300;2024-01-10T09:25:05;-3.30;99.90
19538;DHT22;9914;51.008;4.300;2024-01-10T09:27:32;-3.20;99.90
19538;DHT22;9914;51.008;4.300;2024-01-10T09:29:59;-2.80;99.90
19538;DHT22;9914;51.008;4.300;2024-01-10T09:32:27;-2.90;99.90
19538;DHT22;9914;51.008;4.300;2024-01-10T09:34:55;-2.80;99.90
19538;DHT22;9914;51.008;4.300;2024-01-10T09:37:21;-2.80;99.90
19538;DHT22;9914;51.008;4.300;2024-01-10T09:39:46;-2.80;99.90
19538;DHT22;9914;51.008;4.300;2024-01-10T09:42:13;-2.70;99.90
19538;DHT22;9914;51.008;4.300;2024-01-10T09:44:40;-2.70;99.90
19538;DHT22;9914;51.008;4.300;2024-01-10T09:47:07;-2.60;99.90
19538;DHT22;9914;51.008;4.300;2024-01-10T09:49:34;-2.60;99.90
19538;DHT22;9914;51.008;4.300;2024-01-10T09:52:04;-2.60;99.90
19538;DHT22;9914;51.008;4.300;2024-01-10T09:54:31;-2.50;99.90
19538;DHT22;9914;51.008;4.300;2024-01-10T09:57:00;-2.40;99.90
19538;DHT22;9914;51.008;4.300;2024-01-10T09:59:25;-2.30;99.90
19538;DHT22;9914;51.008;4.300;2024-01-10T10:01:56;-2.40;99.90
19538;DHT22;9914;51.008;4.300;2024-01-10T10:04:22;-2.30;99.90
19538;DHT22;9914;51.008;4.300;2024-01-10T10:06:58;-2.20;99.90
19538;DHT22;9914;51.008;4.300;2024-01-10T10:09:27;-2.10;99.90
19538;DHT22;9914;51.008;4.300;2024-01-10T10:11:54;-2.10;99.90
19538;DHT22;9914;51.008;4.300;2024-01-10T10:14:20;-1.90;99.90
19538;DHT22;9914;51.008;4.300;2024-01-10T10:16:46;-1.80;99.90
19538;DHT22;9914;51.008;4.300;2024-01-10T10:19:12;-1.60;99.90
19538;DHT22;9914;51.008;4.300;2024-01-10T10:21:38;-1.70;99.90
19538;DHT22;9914;51.008;4.300;2024-01-10T10:24:05;-1.50;99.90
19538;DHT22;9914;51.008;4.300;2024-01-10T10:26:34;-1.40;99.90
19538;DHT22;9914;51.008;4.300;2024-01-10T10:29:00;-1.40;99.90
19538;DHT22;9914;51.008;4.300;2024-01-10T10:31:27;-1.50;99.90
19538;DHT22;9914;51.008;4.300;2024-01-10T10:33:52;-1.50;99.90
19538;DHT22;9914;51.008;4.300;2024-01-10T10:36:19;-1.40;99.90
19538;DHT22;9914;51.008;4.300;2024-01-10T10:38:49;-1.40;99.90
19538;DHT22;9914;51.008;4.300;2024-01-10T10:41:15;-1.30;99.90
19538;DHT22;9914;51.008;4.300;2024-01-10T10:43:41;-1.50;99.90
19538;DHT22;9914;51.008;4.300;2024-01-10T10:46:09;-1.40;99.90
19538;DHT22;9914;51.008;4.300;2024-01-10T10:48:38;-1.20;99.90
19538;DHT22;9914;51.008;4.300;2024-01-10T10:54:04;-1.20;99.90
19538;DHT22;9914;51.008;4.300;2024-01-10T10:56:33;-0.90;99.90
19538;DHT22;9914;51.008;4.300;2024-01-10T10:59:02;-1.00;99.90
19538;DHT22;9914;51.008;4.300;2024-01-10T11:01:29;-1.00;99.90
19538;DHT22;9914;51.008;4.300;2024-01-10T11:03:57;-0.80;99.90
19538;DHT22;9914;51.008;4.300;2024-01-10T11:06:24;-0.70;99.90
19538;DHT22;9914;51.008;4.300;2024-01-10T11:08:59;-0.70;99.90
19538;DHT22;9914;51.008;4.300;2024-01-10T11:25:22;-0.60;99.90
19538;DHT22;9914;51.008;4.300;2024-01-10T11:27:52;-0.60;99.90
19538;DHT22;9914;51.008;4.300;2024-01-10T11:30:37;-0.50;99.90
19538;DHT22;9914;51.008;4.300;2024-01-10T11:33:24;-0.30;99.90
19538;DHT22;9914;51.008;4.300;2024-01-10T11:36:06;-0.20;99.90
19538;DHT22;9914;51.008;4.300;2024-01-10T11:39:00;-0.10;99.90
19538;DHT22;9914;51.008;4.300;2024-01-10T11:41:32;-0.40;99.90
19538;DHT22;9914;51.008;4.300;2024-01-10T11:46:41;-0.30;99.90
19538;DHT22;9914;51.008;4.300;2024-01-10T11:49:08;-0.10;99.90
19538;DHT22;9914;51.008;4.300;2024-01-10T11:51:35;-0.10;99.90
19538;DHT22;9914;51.008;4.300;2024-01-10T11:54:02;0.10;99.90
19538;DHT22;9914;51.008;4.300;2024-01-10T11:56:38;0.10;99.90
19538;DHT22;9914;51.008;4.300;2024-01-10T11:59:08;-0.10;99.90
19538;DHT22;9914;51.008;4.300;2024-01-10T12:01:39;0.10;99.90
19538;DHT22;9914;51.008;4.300;2024-01-10T12:04:06;-0.20;99.90
19538;DHT22;9914;51.008;4.300;2024-01-10T12:06:35;0.00;99.90
19538;DHT22;9914;51.008;4.300;2024-01-10T12:09:02;0.10;99.90
19538;DHT22;9914;51.008;4.300;2024-01-10T12:11:34;0.20;99.90
19538;DHT22;9914;51.008;4.300;2024-01-10T12:14:03;0.40;99.90
19538;DHT22;9914;51.008;4.300;2024-01-10T12:16:29;0.50;99.90
19538;DHT22;9914;51.008;4.300;2024-01-10T12:18:55;0.20;99.90
19538;DHT22;9914;51.008;4.300;2024-01-10T12:21:21;0.10;99.90
19538;DHT22;9914;51.008;4.300;2024-01-10T12:23:47;0.10;99.90
19538;DHT22;9914;51.008;4.300;2024-01-10T12:26:13;0.30;99.90
19538;DHT22;9914;51.008;4.300;2024-01-10T12:28:40;0.70;99.90
19538;DHT22;9914;51.008;4.300;2024-01-10T12:31:08;0.80;99.90
19538;DHT22;9914;51.008;4.300;2024-01-10T12:33:35;0.80;99.90
19538;DHT22;9914;51.008;4.300;2024-01-10T12:38:30;0.80;99.90
19538;DHT22;9914;51.008;4.300;2024-01-10T12:40:57;1.00;99.90
19538;DHT22;9914;51.008;4.300;2024-01-10T12:43:23;1.00;99.90
19538;DHT22;9914;51.008;4.300;2024-01-10T12:46:11;1.10;99.90
19538;DHT22;9914;51.008;4.300;2024-01-10T12:48:38;1.10;99.90
19538;DHT22;9914;51.008;4.300;2024-01-10T12:51:11;0.90;99.90
19538;DHT22;9914;51.008;4.300;2024-01-10T12:53:38;1.00;99.90
19538;DHT22;9914;51.008;4.300;2024-01-10T12:56:04;1.10;99.90
19538;DHT22;9914;51.008;4.300;2024-01-10T12:58:31;1.20;99.90
19538;DHT22;9914;51.008;4.300;2024-01-10T13:00:57;1.10;99.90
19538;DHT22;9914;51.008;4.300;2024-01-10T13:03:23;1.00;99.90
19538;DHT22;9914;51.008;4.300;2024-01-10T13:05:50;0.90;99.90
19538;DHT22;9914;51.008;4.300;2024-01-10T13:08:17;0.80;99.90
19538;DHT22;9914;51.008;4.300;2024-01-10T13:10:42;1.00;99.90
19538;DHT22;9914;51.008;4.300;2024-01-10T13:13:08;1.20;99.90
19538;DHT22;9914;51.008;4.300;2024-01-10T13:15:34;1.20;99.90
19538;DHT22;9914;51.008;4.300;2024-01-10T13:18:00;1.10;99.90
19538;DHT22;9914;51.008;4.300;2024-01-10T13:20:25;0.90;99.90
19538;DHT22;9914;51.008;4.300;2024-01-10T13:22:51;0.80;99.90
19538;DHT22;9914;51.008;4.300;2024-01-10T13:25:18;1.10;99.90
19538;DHT22;9914;51.008;4.300;2024-01-10T13:27:43;1.20;99.90
19538;DHT22;9914;51.008;4.300;2024-01-10T13:30:09;1.10;99.90
19538;DHT22;9914;51.008;4.300;2024-01-10T13:32:37;1.20;99.90
19538;DHT22;9914;51.008;4.300;2024-01-10T13:35:04;1.00;99.90
19538;DHT22;9914;51.008;4.300;2024-01-10T13:37:30;1.30;99.90
19538;DHT22;9914;51.008;4.300;2024-01-10T13:39:57;1.30;99.90
19538;DHT22;9914;51.008;4.300;2024-01-10T13:42:23;1.50;99.90
19538;DHT22;9914;51.008;4.300;2024-01-10T13:44:49;1.40;99.90
19538;DHT22;9914;51.008;4.300;2024-01-10T13:47:17;1.20;99.90
19538;DHT22;9914;51.008;4.300;2024-01-10T13:49:43;1.30;99.90
19538;DHT22;9914;51.008;4.300;2024-01-10T13:52:09;1.40;99.90
19538;DHT22;9914;51.008;4.300;2024-01-10T13:54:35;1.20;99.90
19538;DHT22;9914;51.008;4.300;2024-01-10T13:57:02;1.30;99.90
19538;DHT22;9914;51.008;4.300;2024-01-10T13:59:28;1.40;99.90
19538;DHT22;9914;51.008;4.300;2024-01-10T14:01:55;1.60;99.90
19538;DHT22;9914;51.008;4.300;2024-01-10T14:04:20;1.80;99.90
19538;DHT22;9914;51.008;4.300;2024-01-10T14:06:48;1.80;99.90
19538;DHT22;9914;51.008;4.300;2024-01-10T14:09:14;1.70;99.90
19538;DHT22;9914;51.008;4.300;2024-01-10T14:11:39;1.70;99.90
19538;DHT22;9914;51.008;4.300;2024-01-10T14:14:05;1.80;99.90
19538;DHT22;9914;51.008;4.300;2024-01-10T14:16:31;1.80;99.90
19538;DHT22;9914;51.008;4.300;2024-01-10T14:18:57;1.50;99.90
19538;DHT22;9914;51.008;4.300;2024-01-10T14:21:22;1.40;99.90
19538;DHT22;9914;51.008;4.300;2024-01-10T14:23:48;1.40;99.90
19538;DHT22;9914;51.008;4.300;2024-01-10T14:26:15;1.40;99.90
19538;DHT22;9914;51.008;4.300;2024-01-10T14:28:41;1.70;99.90
19538;DHT22;9914;51.008;4.300;2024-01-10T14:31:06;1.80;99.90
19538;DHT22;9914;51.008;4.300;2024-01-10T14:33:32;1.80;99.90
19538;DHT22;9914;51.008;4.300;2024-01-10T14:36:00;1.70;99.90
19538;DHT22;9914;51.008;4.300;2024-01-10T14:38:25;1.70;99.90
19538;DHT22;9914;51.008;4.300;2024-01-10T14:40:51;1.80;99.90
19538;DHT22;9914;51.008;4.300;2024-01-10T14:43:17;1.80;99.90
19538;DHT22;9914;51.008;4.300;2024-01-10T14:45:43;1.70;99.90
19538;DHT22;9914;51.008;4.300;2024-01-10T14:48:09;1.80;99.90
19538;DHT22;9914;51.008;4.300;2024-01-10T14:50:35;1.80;99.90
19538;DHT22;9914;51.008;4.300;2024-01-10T14:53:01;1.90;99.90
19538;DHT22;9914;51.008;4.300;2024-01-10T14:55:27;1.80;99.90
19538;DHT22;9914;51.008;4.300;2024-01-10T14:57:54;1.80;99.90
19538;DHT22;9914;51.008;4.300;2024-01-10T15:00:20;1.70;99.90
19538;DHT22;9914;51.008;4.300;2024-01-10T15:02:46;1.50;99.90
19538;DHT22;9914;51.008;4.300;2024-01-10T15:05:12;1.40;99.90
19538;DHT22;9914;51.008;4.300;2024-01-10T15:07:38;1.60;99.90
19538;DHT22;9914;51.008;4.300;2024-01-10T15:10:04;1.70;99.90
19538;DHT22;9914;51.008;4.300;2024-01-10T15:12:30;1.40;99.90
19538;DHT22;9914;51.008;4.300;2024-01-10T15:14:55;1.50;99.90
19538;DHT22;9914;51.008;4.300;2024-01-10T15:17:27;1.70;99.90
19538;DHT22;9914;51.008;4.300;2024-01-10T15:19:53;1.70;99.90
19538;DHT22;9914;51.008;4.300;2024-01-10T15:22:19;1.70;99.90
19538;DHT22;9914;51.008;4.300;2024-01-10T15:24:44;1.50;99.90
19538;DHT22;9914;51.008;4.300;2024-01-10T15:27:10;1.30;99.90
19538;DHT22;9914;51.008;4.300;2024-01-10T15:29:39;1.30;99.90
19538;DHT22;9914;51.008;4.300;2024-01-10T15:32:05;1.30;99.90
19538;DHT22;9914;51.008;4.300;2024-01-10T15:34:32;1.30;99.90
19538;DHT22;9914;51.008;4.300;2024-01-10T15:36:58;1.40;99.90
19538;DHT22;9914;51.008;4.300;2024-01-10T15:39:24;1.10;99.90
19538;DHT22;9914;51.008;4.300;2024-01-10T15:41:50;1.10;99.90
19538;DHT22;9914;51.008;4.300;2024-01-10T15:44:19;1.20;99.90
19538;DHT22;9914;51.008;4.300;2024-01-10T15:46:45;0.90;99.90
19538;DHT22;9914;51.008;4.300;2024-01-10T15:49:11;0.90;99.90
19538;DHT22;9914;51.008;4.300;2024-01-10T15:51:37;0.80;99.90
19538;DHT22;9914;51.008;4.300;2024-01-10T15:54:03;0.80;99.90
19538;DHT22;9914;51.008;4.300;2024-01-10T15:56:29;0.60;99.90
19538;DHT22;9914;51.008;4.300;2024-01-10T15:58:56;0.40;99.90
19538;DHT22;9914;51.008;4.300;2024-01-10T16:01:22;0.50;99.90
19538;DHT22;9914;51.008;4.300;2024-01-10T16:03:49;0.20;99.90
19538;DHT22;9914;51.008;4.300;2024-01-10T16:06:15;0.10;99.90
19538;DHT22;9914;51.008;4.300;2024-01-10T16:08:45;0.00;99.90